Huvudsida
METAR-TAF:

METAR-TAF

Flygplatser :

Kruger Mpumalanga International Airport

Kruger nationalpark, Sydafrika

latitud: 25-23-00S, longitud: 31-06-20E, höjd: 862 m

Aktuellt väderrapport

Denna rapport gjordes för 1 timme och 28 minuter sedan, klockan 17:00 UTC
Vind 3 kt från nord/nordost
Temperatur 20°C
Fuktighet 60%
Tryck 1024 hPa
Sikt 10 km eller mer
Inga moln under 1 500 m eller inga cumulonimbus

METAR: FAKN 231700Z 03003KT CAVOK 20/12 Q1024 NOSIG

Tid: 20:28 (18:28 UTC)

Väderprognos

Denna rapport gjordes för 9 timmar och 28 minuter sedan, klockan 09:00 UTC
Prognos gäller från 23 kl. 10 UTC till 23 kl. 18 UTC
Vind 3 kt varierande vindriktning
Sikt 10 km eller mer
Inga moln under 1 500 m eller inga cumulonimbus

TAF: FAKN 230900Z 2310/2318 VRB03KT CAVOK TX24/2313Z TN15/2318Z

Aktuella väderrapporter och prognoser från 4000 flygplatser (METAR- och TAF-rapporter).

De tillgängliga stationerna syns som gula och röda prickar på kartan.

För musen över prickarna för att se namnen på stationerna.

Klicka sedan för att få väderrapporter och prognoser.

För att ändra kartan: Klicka på de gröna knapparna med ett svart kors på för att zooma in; den gröna knappen med ett streck på för att zooma ut; eller på de gröna pilarna för angränsande kartor.


METAR-TAF: